sensor_id;sensor_type;location;lat;lon;timestamp;temperature;humidity
18388;DHT22;9320;50.256;19.026;2023-04-03T00:01:11;4.30;99.90
18388;DHT22;9320;50.256;19.026;2023-04-03T00:03:40;4.30;99.90
18388;DHT22;9320;50.256;19.026;2023-04-03T00:06:10;4.30;99.90
18388;DHT22;9320;50.256;19.026;2023-04-03T00:08:39;4.20;99.90
18388;DHT22;9320;50.256;19.026;2023-04-03T00:11:09;4.10;99.90
18388;DHT22;9320;50.256;19.026;2023-04-03T00:13:38;4.20;99.90
18388;DHT22;9320;50.256;19.026;2023-04-03T00:16:07;4.20;99.90
18388;DHT22;9320;50.256;19.026;2023-04-03T00:18:35;4.20;99.90
18388;DHT22;9320;50.256;19.026;2023-04-03T00:21:04;4.30;99.90
18388;DHT22;9320;50.256;19.026;2023-04-03T00:23:32;4.30;99.90
18388;DHT22;9320;50.256;19.026;2023-04-03T00:26:01;4.30;99.90
18388;DHT22;9320;50.256;19.026;2023-04-03T00:28:30;4.10;99.90
18388;DHT22;9320;50.256;19.026;2023-04-03T00:30:58;4.20;99.90
18388;DHT22;9320;50.256;19.026;2023-04-03T00:33:27;4.00;99.90
18388;DHT22;9320;50.256;19.026;2023-04-03T00:35:55;4.40;99.90
18388;DHT22;9320;50.256;19.026;2023-04-03T00:38:23;4.40;99.90
18388;DHT22;9320;50.256;19.026;2023-04-03T00:40:51;4.50;99.90
18388;DHT22;9320;50.256;19.026;2023-04-03T00:43:21;4.60;99.90
18388;DHT22;9320;50.256;19.026;2023-04-03T00:45:51;4.50;99.90
18388;DHT22;9320;50.256;19.026;2023-04-03T00:48:22;4.40;99.90
18388;DHT22;9320;50.256;19.026;2023-04-03T00:50:52;4.30;99.90
18388;DHT22;9320;50.256;19.026;2023-04-03T00:53:24;4.30;99.90
18388;DHT22;9320;50.256;19.026;2023-04-03T00:55:54;4.30;99.90
18388;DHT22;9320;50.256;19.026;2023-04-03T00:58:27;4.30;99.90
18388;DHT22;9320;50.256;19.026;2023-04-03T01:00:58;4.50;99.90
18388;DHT22;9320;50.256;19.026;2023-04-03T01:03:26;4.50;99.90
18388;DHT22;9320;50.256;19.026;2023-04-03T01:05:54;4.40;99.90
18388;DHT22;9320;50.256;19.026;2023-04-03T01:08:22;4.40;99.90
18388;DHT22;9320;50.256;19.026;2023-04-03T01:10:50;4.40;99.90
18388;DHT22;9320;50.256;19.026;2023-04-03T01:13:23;4.50;99.90
18388;DHT22;9320;50.256;19.026;2023-04-03T01:15:52;4.40;99.90
18388;DHT22;9320;50.256;19.026;2023-04-03T01:18:22;4.50;99.90
18388;DHT22;9320;50.256;19.026;2023-04-03T01:24:25;4.30;99.90
18388;DHT22;9320;50.256;19.026;2023-04-03T01:26:55;4.40;99.90
18388;DHT22;9320;50.256;19.026;2023-04-03T01:29:23;4.30;99.90
18388;DHT22;9320;50.256;19.026;2023-04-03T01:31:53;4.40;99.90
18388;DHT22;9320;50.256;19.026;2023-04-03T01:34:23;4.50;99.90
18388;DHT22;9320;50.256;19.026;2023-04-03T01:36:51;4.20;99.90
18388;DHT22;9320;50.256;19.026;2023-04-03T01:39:20;4.20;99.90
18388;DHT22;9320;50.256;19.026;2023-04-03T01:41:48;4.30;99.90
18388;DHT22;9320;50.256;19.026;2023-04-03T01:44:16;4.30;99.90
18388;DHT22;9320;50.256;19.026;2023-04-03T01:46:44;4.30;99.90
18388;DHT22;9320;50.256;19.026;2023-04-03T01:49:14;4.40;99.90
18388;DHT22;9320;50.256;19.026;2023-04-03T01:51:42;4.50;99.90
18388;DHT22;9320;50.256;19.026;2023-04-03T01:54:10;4.50;99.90
18388;DHT22;9320;50.256;19.026;2023-04-03T01:56:38;4.40;99.90
18388;DHT22;9320;50.256;19.026;2023-04-03T01:59:06;4.30;99.90
18388;DHT22;9320;50.256;19.026;2023-04-03T02:01:34;4.30;99.90
18388;DHT22;9320;50.256;19.026;2023-04-03T02:04:03;4.30;99.90
18388;DHT22;9320;50.256;19.026;2023-04-03T02:06:32;4.00;99.90
18388;DHT22;9320;50.256;19.026;2023-04-03T02:09:01;3.90;99.90
18388;DHT22;9320;50.256;19.026;2023-04-03T02:11:29;3.80;99.90
18388;DHT22;9320;50.256;19.026;2023-04-03T02:13:57;3.80;99.90
18388;DHT22;9320;50.256;19.026;2023-04-03T02:16:25;3.80;99.90
18388;DHT22;9320;50.256;19.026;2023-04-03T02:18:53;3.80;99.90
18388;DHT22;9320;50.256;19.026;2023-04-03T02:21:21;3.80;99.90
18388;DHT22;9320;50.256;19.026;2023-04-03T02:23:51;3.70;99.90
18388;DHT22;9320;50.256;19.026;2023-04-03T02:26:19;3.60;99.90
18388;DHT22;9320;50.256;19.026;2023-04-03T02:28:47;3.60;99.90
18388;DHT22;9320;50.256;19.026;2023-04-03T02:31:15;3.70;99.90
18388;DHT22;9320;50.256;19.026;2023-04-03T02:33:43;3.70;99.90
18388;DHT22;9320;50.256;19.026;2023-04-03T02:36:11;3.70;99.90
18388;DHT22;9320;50.256;19.026;2023-04-03T02:38:39;3.70;99.90
18388;DHT22;9320;50.256;19.026;2023-04-03T02:41:10;3.40;99.90
18388;DHT22;9320;50.256;19.026;2023-04-03T02:43:38;3.50;99.90
18388;DHT22;9320;50.256;19.026;2023-04-03T02:46:07;3.50;99.90
18388;DHT22;9320;50.256;19.026;2023-04-03T02:48:36;3.50;99.90
18388;DHT22;9320;50.256;19.026;2023-04-03T02:51:05;3.60;99.90
18388;DHT22;9320;50.256;19.026;2023-04-03T02:53:33;3.60;99.90
18388;DHT22;9320;50.256;19.026;2023-04-03T02:56:01;3.70;99.90
18388;DHT22;9320;50.256;19.026;2023-04-03T02:58:30;3.90;99.90
18388;DHT22;9320;50.256;19.026;2023-04-03T03:00:59;3.90;99.90
18388;DHT22;9320;50.256;19.026;2023-04-03T03:03:27;3.90;99.90
18388;DHT22;9320;50.256;19.026;2023-04-03T03:06:02;4.00;99.90
18388;DHT22;9320;50.256;19.026;2023-04-03T03:08:30;4.10;99.90
18388;DHT22;9320;50.256;19.026;2023-04-03T03:10:58;4.00;99.90
18388;DHT22;9320;50.256;19.026;2023-04-03T03:13:27;4.10;99.90
18388;DHT22;9320;50.256;19.026;2023-04-03T03:15:56;4.10;99.90
18388;DHT22;9320;50.256;19.026;2023-04-03T03:18:24;4.10;99.90
18388;DHT22;9320;50.256;19.026;2023-04-03T03:20:53;4.00;99.90
18388;DHT22;9320;50.256;19.026;2023-04-03T03:23:22;4.00;99.90
18388;DHT22;9320;50.256;19.026;2023-04-03T03:25:54;4.00;99.90
18388;DHT22;9320;50.256;19.026;2023-04-03T03:28:23;4.00;99.90
18388;DHT22;9320;50.256;19.026;2023-04-03T03:30:52;4.00;99.90
18388;DHT22;9320;50.256;19.026;2023-04-03T03:33:21;3.80;99.90
18388;DHT22;9320;50.256;19.026;2023-04-03T03:35:49;3.60;99.90
18388;DHT22;9320;50.256;19.026;2023-04-03T03:38:17;3.40;99.90
18388;DHT22;9320;50.256;19.026;2023-04-03T03:40:47;3.50;99.90
18388;DHT22;9320;50.256;19.026;2023-04-03T03:43:15;3.50;99.90
18388;DHT22;9320;50.256;19.026;2023-04-03T03:45:43;3.40;99.90
18388;DHT22;9320;50.256;19.026;2023-04-03T03:48:12;3.60;99.90
18388;DHT22;9320;50.256;19.026;2023-04-03T03:50:41;3.50;99.90
18388;DHT22;9320;50.256;19.026;2023-04-03T03:53:09;3.40;99.90
18388;DHT22;9320;50.256;19.026;2023-04-03T03:55:37;3.40;99.90
18388;DHT22;9320;50.256;19.026;2023-04-03T03:58:06;3.30;99.90
18388;DHT22;9320;50.256;19.026;2023-04-03T04:00:34;3.20;99.90
18388;DHT22;9320;50.256;19.026;2023-04-03T04:03:02;3.30;99.90
18388;DHT22;9320;50.256;19.026;2023-04-03T04:05:30;3.20;99.90
18388;DHT22;9320;50.256;19.026;2023-04-03T04:08:00;3.10;99.90
18388;DHT22;9320;50.256;19.026;2023-04-03T04:10:27;3.10;99.90
18388;DHT22;9320;50.256;19.026;2023-04-03T04:12:56;3.20;99.90
18388;DHT22;9320;50.256;19.026;2023-04-03T04:15:24;3.20;99.90
18388;DHT22;9320;50.256;19.026;2023-04-03T04:17:53;3.30;99.90
18388;DHT22;9320;50.256;19.026;2023-04-03T04:20:22;3.30;99.90
18388;DHT22;9320;50.256;19.026;2023-04-03T04:22:50;3.40;99.90
18388;DHT22;9320;50.256;19.026;2023-04-03T04:25:19;3.70;99.90
18388;DHT22;9320;50.256;19.026;2023-04-03T04:27:47;3.40;99.90
18388;DHT22;9320;50.256;19.026;2023-04-03T04:30:16;3.40;99.90
18388;DHT22;9320;50.256;19.026;2023-04-03T04:32:44;3.40;99.90
18388;DHT22;9320;50.256;19.026;2023-04-03T04:35:12;3.40;99.90
18388;DHT22;9320;50.256;19.026;2023-04-03T04:37:42;3.30;99.90
18388;DHT22;9320;50.256;19.026;2023-04-03T04:40:11;3.30;99.90
18388;DHT22;9320;50.256;19.026;2023-04-03T04:42:40;3.20;99.90
18388;DHT22;9320;50.256;19.026;2023-04-03T04:45:09;3.20;99.90
18388;DHT22;9320;50.256;19.026;2023-04-03T04:47:37;3.30;99.90
18388;DHT22;9320;50.256;19.026;2023-04-03T04:50:06;3.20;99.90
18388;DHT22;9320;50.256;19.026;2023-04-03T04:52:34;3.20;99.90
18388;DHT22;9320;50.256;19.026;2023-04-03T04:55:03;3.30;99.90
18388;DHT22;9320;50.256;19.026;2023-04-03T04:57:31;3.10;99.90
18388;DHT22;9320;50.256;19.026;2023-04-03T05:00:00;3.20;99.90
18388;DHT22;9320;50.256;19.026;2023-04-03T05:02:29;3.30;99.90
18388;DHT22;9320;50.256;19.026;2023-04-03T05:04:58;3.30;99.90
18388;DHT22;9320;50.256;19.026;2023-04-03T05:07:27;3.20;99.90
18388;DHT22;9320;50.256;19.026;2023-04-03T05:09:55;3.00;99.90
18388;DHT22;9320;50.256;19.026;2023-04-03T05:12:23;2.90;99.90
18388;DHT22;9320;50.256;19.026;2023-04-03T05:14:51;2.80;99.90
18388;DHT22;9320;50.256;19.026;2023-04-03T05:17:21;2.80;99.90
18388;DHT22;9320;50.256;19.026;2023-04-03T05:19:49;2.70;99.90
18388;DHT22;9320;50.256;19.026;2023-04-03T05:22:17;2.60;99.90
18388;DHT22;9320;50.256;19.026;2023-04-03T05:24:45;2.70;99.90
18388;DHT22;9320;50.256;19.026;2023-04-03T05:27:13;2.80;99.90
18388;DHT22;9320;50.256;19.026;2023-04-03T05:29:41;2.80;99.90
18388;DHT22;9320;50.256;19.026;2023-04-03T05:32:11;2.70;99.90
18388;DHT22;9320;50.256;19.026;2023-04-03T05:34:40;2.80;99.90
18388;DHT22;9320;50.256;19.026;2023-04-03T05:37:08;2.90;99.90
18388;DHT22;9320;50.256;19.026;2023-04-03T05:39:37;2.80;99.90
18388;DHT22;9320;50.256;19.026;2023-04-03T05:42:07;2.90;99.90
18388;DHT22;9320;50.256;19.026;2023-04-03T05:44:35;2.80;99.90
18388;DHT22;9320;50.256;19.026;2023-04-03T05:47:04;2.80;99.90
18388;DHT22;9320;50.256;19.026;2023-04-03T05:49:32;2.70;99.90
18388;DHT22;9320;50.256;19.026;2023-04-03T05:52:02;2.80;99.90
18388;DHT22;9320;50.256;19.026;2023-04-03T05:54:30;2.70;99.90
18388;DHT22;9320;50.256;19.026;2023-04-03T05:56:58;2.80;99.90
18388;DHT22;9320;50.256;19.026;2023-04-03T05:59:26;2.80;99.90
18388;DHT22;9320;50.256;19.026;2023-04-03T06:01:55;2.80;99.90
18388;DHT22;9320;50.256;19.026;2023-04-03T06:04:23;2.80;99.90
18388;DHT22;9320;50.256;19.026;2023-04-03T06:06:54;2.90;99.90
18388;DHT22;9320;50.256;19.026;2023-04-03T06:09:26;2.90;99.90
18388;DHT22;9320;50.256;19.026;2023-04-03T06:11:55;2.80;99.90
18388;DHT22;9320;50.256;19.026;2023-04-03T06:14:25;2.90;99.90
18388;DHT22;9320;50.256;19.026;2023-04-03T06:16:53;3.00;99.90
18388;DHT22;9320;50.256;19.026;2023-04-03T06:19:23;3.00;99.90
18388;DHT22;9320;50.256;19.026;2023-04-03T06:21:51;3.10;99.90
18388;DHT22;9320;50.256;19.026;2023-04-03T06:24:20;3.10;99.80
18388;DHT22;9320;50.256;19.026;2023-04-03T06:26:52;3.20;99.90
18388;DHT22;9320;50.256;19.026;2023-04-03T06:29:20;3.20;99.70
18388;DHT22;9320;50.256;19.026;2023-04-03T06:31:49;3.20;98.60
18388;DHT22;9320;50.256;19.026;2023-04-03T06:34:17;2.80;99.80
18388;DHT22;9320;50.256;19.026;2023-04-03T06:36:45;2.80;99.90
18388;DHT22;9320;50.256;19.026;2023-04-03T06:39:15;3.10;99.70
18388;DHT22;9320;50.256;19.026;2023-04-03T06:41:44;3.30;98.70
18388;DHT22;9320;50.256;19.026;2023-04-03T06:44:13;3.50;98.50
18388;DHT22;9320;50.256;19.026;2023-04-03T06:46:43;3.60;97.40
18388;DHT22;9320;50.256;19.026;2023-04-03T06:49:12;3.60;97.90
18388;DHT22;9320;50.256;19.026;2023-04-03T06:51:41;3.60;97.00
18388;DHT22;9320;50.256;19.026;2023-04-03T06:54:10;3.60;96.60
18388;DHT22;9320;50.256;19.026;2023-04-03T06:56:38;3.60;97.00
18388;DHT22;9320;50.256;19.026;2023-04-03T06:59:06;3.60;96.40
18388;DHT22;9320;50.256;19.026;2023-04-03T07:01:36;3.60;95.90
18388;DHT22;9320;50.256;19.026;2023-04-03T07:04:05;3.60;95.90
18388;DHT22;9320;50.256;19.026;2023-04-03T07:06:34;3.80;96.00
18388;DHT22;9320;50.256;19.026;2023-04-03T07:09:03;3.50;95.60
18388;DHT22;9320;50.256;19.026;2023-04-03T07:11:32;4.10;94.90
18388;DHT22;9320;50.256;19.026;2023-04-03T07:14:00;3.90;93.70
18388;DHT22;9320;50.256;19.026;2023-04-03T07:16:29;3.90;94.00
18388;DHT22;9320;50.256;19.026;2023-04-03T07:18:59;4.10;93.90
18388;DHT22;9320;50.256;19.026;2023-04-03T07:21:28;4.20;94.00
18388;DHT22;9320;50.256;19.026;2023-04-03T07:23:56;4.40;93.40
18388;DHT22;9320;50.256;19.026;2023-04-03T07:26:24;4.40;92.30
18388;DHT22;9320;50.256;19.026;2023-04-03T07:28:52;4.30;92.40
18388;DHT22;9320;50.256;19.026;2023-04-03T07:31:20;4.30;92.30
18388;DHT22;9320;50.256;19.026;2023-04-03T07:33:49;4.10;91.50
18388;DHT22;9320;50.256;19.026;2023-04-03T07:36:21;3.90;92.00
18388;DHT22;9320;50.256;19.026;2023-04-03T07:38:49;3.80;92.10
18388;DHT22;9320;50.256;19.026;2023-04-03T07:41:19;3.70;92.00
18388;DHT22;9320;50.256;19.026;2023-04-03T07:43:49;4.00;92.80
18388;DHT22;9320;50.256;19.026;2023-04-03T07:46:18;4.00;91.70
18388;DHT22;9320;50.256;19.026;2023-04-03T07:48:47;4.20;90.90
18388;DHT22;9320;50.256;19.026;2023-04-03T07:51:15;4.20;90.30
18388;DHT22;9320;50.256;19.026;2023-04-03T07:53:45;4.30;89.90
18388;DHT22;9320;50.256;19.026;2023-04-03T07:56:13;4.30;89.80
18388;DHT22;9320;50.256;19.026;2023-04-03T07:58:41;4.30;89.80
18388;DHT22;9320;50.256;19.026;2023-04-03T08:01:09;4.10;89.80
18388;DHT22;9320;50.256;19.026;2023-04-03T08:03:38;4.20;90.10
18388;DHT22;9320;50.256;19.026;2023-04-03T08:06:08;4.60;90.10
18388;DHT22;9320;50.256;19.026;2023-04-03T08:08:42;4.70;86.70
18388;DHT22;9320;50.256;19.026;2023-04-03T08:11:12;4.60;85.60
18388;DHT22;9320;50.256;19.026;2023-04-03T08:13:40;4.60;86.30
18388;DHT22;9320;50.256;19.026;2023-04-03T08:16:11;4.60;85.80
18388;DHT22;9320;50.256;19.026;2023-04-03T08:18:39;4.80;84.50
18388;DHT22;9320;50.256;19.026;2023-04-03T08:21:08;4.70;81.60
18388;DHT22;9320;50.256;19.026;2023-04-03T08:23:37;4.80;82.20
18388;DHT22;9320;50.256;19.026;2023-04-03T08:26:07;4.70;81.20
18388;DHT22;9320;50.256;19.026;2023-04-03T08:28:37;4.70;81.20
18388;DHT22;9320;50.256;19.026;2023-04-03T08:31:07;4.70;79.80
18388;DHT22;9320;50.256;19.026;2023-04-03T08:33:38;4.80;79.00
18388;DHT22;9320;50.256;19.026;2023-04-03T08:36:14;4.90;78.00
18388;DHT22;9320;50.256;19.026;2023-04-03T08:38:43;5.00;78.40
18388;DHT22;9320;50.256;19.026;2023-04-03T08:41:15;5.00;76.80
18388;DHT22;9320;50.256;19.026;2023-04-03T08:43:56;4.90;76.10
18388;DHT22;9320;50.256;19.026;2023-04-03T08:46:35;4.80;75.40
18388;DHT22;9320;50.256;19.026;2023-04-03T08:49:10;4.90;75.10
18388;DHT22;9320;50.256;19.026;2023-04-03T08:51:46;4.60;74.20
18388;DHT22;9320;50.256;19.026;2023-04-03T08:54:25;4.60;74.70
18388;DHT22;9320;50.256;19.026;2023-04-03T08:56:56;4.90;73.80
18388;DHT22;9320;50.256;19.026;2023-04-03T08:59:29;5.20;72.80
18388;DHT22;9320;50.256;19.026;2023-04-03T09:02:03;5.40;73.30
18388;DHT22;9320;50.256;19.026;2023-04-03T09:04:33;5.20;71.20
18388;DHT22;9320;50.256;19.026;2023-04-03T09:07:05;5.20;69.50
18388;DHT22;9320;50.256;19.026;2023-04-03T09:09:36;5.50;69.30
18388;DHT22;9320;50.256;19.026;2023-04-03T09:12:15;6.70;66.80
18388;DHT22;9320;50.256;19.026;2023-04-03T09:14:53;7.60;63.40
18388;DHT22;9320;50.256;19.026;2023-04-03T09:17:34;9.30;60.00
18388;DHT22;9320;50.256;19.026;2023-04-03T09:20:14;9.90;56.40
18388;DHT22;9320;50.256;19.026;2023-04-03T09:22:47;9.30;55.30
18388;DHT22;9320;50.256;19.026;2023-04-03T09:25:21;7.90;58.60
18388;DHT22;9320;50.256;19.026;2023-04-03T09:27:51;7.80;59.60
18388;DHT22;9320;50.256;19.026;2023-04-03T09:30:23;7.60;59.20
18388;DHT22;9320;50.256;19.026;2023-04-03T09:32:54;7.70;57.30
18388;DHT22;9320;50.256;19.026;2023-04-03T09:35:25;6.90;55.70
18388;DHT22;9320;50.256;19.026;2023-04-03T09:38:19;6.40;58.40
18388;DHT22;9320;50.256;19.026;2023-04-03T09:40:49;6.00;59.70
18388;DHT22;9320;50.256;19.026;2023-04-03T09:43:29;5.70;60.10
18388;DHT22;9320;50.256;19.026;2023-04-03T09:46:18;5.30;60.80
18388;DHT22;9320;50.256;19.026;2023-04-03T09:48:51;5.80;60.20
18388;DHT22;9320;50.256;19.026;2023-04-03T09:51:34;7.70;59.60
18388;DHT22;9320;50.256;19.026;2023-04-03T09:54:25;11.00;55.50
18388;DHT22;9320;50.256;19.026;2023-04-03T09:56:54;14.80;49.20
18388;DHT22;9320;50.256;19.026;2023-04-03T09:59:24;14.80;44.70
18388;DHT22;9320;50.256;19.026;2023-04-03T10:02:02;13.50;45.30
18388;DHT22;9320;50.256;19.026;2023-04-03T10:04:38;12.40;46.50
18388;DHT22;9320;50.256;19.026;2023-04-03T10:07:29;11.30;50.10
18388;DHT22;9320;50.256;19.026;2023-04-03T10:09:58;10.50;51.70
18388;DHT22;9320;50.256;19.026;2023-04-03T10:12:28;9.90;49.70
18388;DHT22;9320;50.256;19.026;2023-04-03T10:14:57;9.80;48.30
18388;DHT22;9320;50.256;19.026;2023-04-03T10:17:37;9.00;48.30
18388;DHT22;9320;50.256;19.026;2023-04-03T10:20:26;7.60;49.40
18388;DHT22;9320;50.256;19.026;2023-04-03T10:23:02;7.00;51.40
18388;DHT22;9320;50.256;19.026;2023-04-03T10:25:38;7.80;51.60
18388;DHT22;9320;50.256;19.026;2023-04-03T10:28:11;9.00;50.70
18388;DHT22;9320;50.256;19.026;2023-04-03T10:30:47;10.80;46.70
18388;DHT22;9320;50.256;19.026;2023-04-03T10:33:30;12.60;45.40
18388;DHT22;9320;50.256;19.026;2023-04-03T10:36:16;11.80;45.30
18388;DHT22;9320;50.256;19.026;2023-04-03T10:38:51;10.70;46.90
18388;DHT22;9320;50.256;19.026;2023-04-03T10:41:31;9.90;49.60
18388;DHT22;9320;50.256;19.026;2023-04-03T10:44:12;9.70;50.90
18388;DHT22;9320;50.256;19.026;2023-04-03T10:46:44;9.50;51.20
18388;DHT22;9320;50.256;19.026;2023-04-03T10:49:25;8.90;51.30
18388;DHT22;9320;50.256;19.026;2023-04-03T10:52:02;8.80;51.70
18388;DHT22;9320;50.256;19.026;2023-04-03T10:54:36;8.60;51.70
18388;DHT22;9320;50.256;19.026;2023-04-03T10:57:08;8.40;52.10
18388;DHT22;9320;50.256;19.026;2023-04-03T10:59:43;8.40;53.10
18388;DHT22;9320;50.256;19.026;2023-04-03T11:02:17;8.00;53.20
18388;DHT22;9320;50.256;19.026;2023-04-03T11:04:51;8.10;53.40
18388;DHT22;9320;50.256;19.026;2023-04-03T11:07:22;7.80;53.60
18388;DHT22;9320;50.256;19.026;2023-04-03T11:09:55;7.40;53.00
18388;DHT22;9320;50.256;19.026;2023-04-03T11:12:27;7.20;52.30
18388;DHT22;9320;50.256;19.026;2023-04-03T11:14:59;7.10;51.60
18388;DHT22;9320;50.256;19.026;2023-04-03T11:17:34;7.50;51.80
18388;DHT22;9320;50.256;19.026;2023-04-03T11:20:10;8.00;51.20
18388;DHT22;9320;50.256;19.026;2023-04-03T11:22:45;8.30;50.60
18388;DHT22;9320;50.256;19.026;2023-04-03T11:25:18;8.20;50.00
18388;DHT22;9320;50.256;19.026;2023-04-03T11:27:53;8.00;51.00
18388;DHT22;9320;50.256;19.026;2023-04-03T11:30:25;8.10;51.90
18388;DHT22;9320;50.256;19.026;2023-04-03T11:33:20;8.00;52.10
18388;DHT22;9320;50.256;19.026;2023-04-03T11:35:53;8.00;51.50
18388;DHT22;9320;50.256;19.026;2023-04-03T11:38:25;8.30;51.40
18388;DHT22;9320;50.256;19.026;2023-04-03T11:40:57;8.20;51.30
18388;DHT22;9320;50.256;19.026;2023-04-03T11:43:27;7.90;51.30
18388;DHT22;9320;50.256;19.026;2023-04-03T11:45:58;7.60;52.40
18388;DHT22;9320;50.256;19.026;2023-04-03T11:48:49;7.10;54.20
18388;DHT22;9320;50.256;19.026;2023-04-03T11:54:43;7.10;54.50
18388;DHT22;9320;50.256;19.026;2023-04-03T12:00:56;7.70;53.60
18388;DHT22;9320;50.256;19.026;2023-04-03T12:07:01;8.40;51.50
18388;DHT22;9320;50.256;19.026;2023-04-03T12:12:33;8.20;51.30
18388;DHT22;9320;50.256;19.026;2023-04-03T12:18:42;8.10;54.10
18388;DHT22;9320;50.256;19.026;2023-04-03T12:21:12;8.50;51.90
18388;DHT22;9320;50.256;19.026;2023-04-03T12:24:04;8.30;50.90
18388;DHT22;9320;50.256;19.026;2023-04-03T12:26:38;8.50;50.70
18388;DHT22;9320;50.256;19.026;2023-04-03T12:29:21;8.80;51.20
18388;DHT22;9320;50.256;19.026;2023-04-03T12:32:04;8.90;50.20
18388;DHT22;9320;50.256;19.026;2023-04-03T12:34:46;8.50;51.70
18388;DHT22;9320;50.256;19.026;2023-04-03T12:37:24;8.40;52.40
18388;DHT22;9320;50.256;19.026;2023-04-03T12:40:07;7.50;54.30
18388;DHT22;9320;50.256;19.026;2023-04-03T12:43:05;6.90;56.40
18388;DHT22;9320;50.256;19.026;2023-04-03T12:45:47;7.10;56.20
18388;DHT22;9320;50.256;19.026;2023-04-03T12:48:20;7.50;55.40
18388;DHT22;9320;50.256;19.026;2023-04-03T12:50:50;7.30;54.80
18388;DHT22;9320;50.256;19.026;2023-04-03T12:53:21;7.20;55.70
18388;DHT22;9320;50.256;19.026;2023-04-03T12:55:54;6.70;56.60
18388;DHT22;9320;50.256;19.026;2023-04-03T12:58:25;6.90;54.80
18388;DHT22;9320;50.256;19.026;2023-04-03T13:01:03;6.90;53.70
18388;DHT22;9320;50.256;19.026;2023-04-03T13:03:31;6.80;53.80
18388;DHT22;9320;50.256;19.026;2023-04-03T13:06:01;6.90;54.40
18388;DHT22;9320;50.256;19.026;2023-04-03T13:08:30;6.70;55.60
18388;DHT22;9320;50.256;19.026;2023-04-03T13:11:01;6.90;55.10
18388;DHT22;9320;50.256;19.026;2023-04-03T13:13:30;7.00;54.10
18388;DHT22;9320;50.256;19.026;2023-04-03T13:16:01;6.80;52.90
18388;DHT22;9320;50.256;19.026;2023-04-03T13:18:36;6.90;53.10
18388;DHT22;9320;50.256;19.026;2023-04-03T13:21:06;7.20;53.10
18388;DHT22;9320;50.256;19.026;2023-04-03T13:23:36;7.40;53.20
18388;DHT22;9320;50.256;19.026;2023-04-03T13:26:07;7.50;52.10
18388;DHT22;9320;50.256;19.026;2023-04-03T13:28:36;7.60;53.10
18388;DHT22;9320;50.256;19.026;2023-04-03T13:31:08;7.70;51.30
18388;DHT22;9320;50.256;19.026;2023-04-03T13:33:56;7.60;49.80
18388;DHT22;9320;50.256;19.026;2023-04-03T13:36:27;7.40;49.20
18388;DHT22;9320;50.256;19.026;2023-04-03T13:39:05;7.40;50.20
18388;DHT22;9320;50.256;19.026;2023-04-03T13:41:36;7.90;50.90
18388;DHT22;9320;50.256;19.026;2023-04-03T13:44:28;7.90;51.90
18388;DHT22;9320;50.256;19.026;2023-04-03T13:46:59;7.90;52.00
18388;DHT22;9320;50.256;19.026;2023-04-03T13:49:31;7.40;52.50
18388;DHT22;9320;50.256;19.026;2023-04-03T13:52:00;7.30;53.30
18388;DHT22;9320;50.256;19.026;2023-04-03T13:54:36;7.20;53.90
18388;DHT22;9320;50.256;19.026;2023-04-03T13:57:13;7.30;54.90
18388;DHT22;9320;50.256;19.026;2023-04-03T13:59:42;7.00;55.60
18388;DHT22;9320;50.256;19.026;2023-04-03T14:02:17;7.10;55.20
18388;DHT22;9320;50.256;19.026;2023-04-03T14:04:53;7.10;54.00
18388;DHT22;9320;50.256;19.026;2023-04-03T14:07:27;7.10;54.00
18388;DHT22;9320;50.256;19.026;2023-04-03T14:09:55;7.10;54.20
18388;DHT22;9320;50.256;19.026;2023-04-03T14:12:27;6.90;55.40
18388;DHT22;9320;50.256;19.026;2023-04-03T14:14:58;6.90;56.20
18388;DHT22;9320;50.256;19.026;2023-04-03T14:17:29;6.60;56.50
18388;DHT22;9320;50.256;19.026;2023-04-03T14:19:58;6.80;55.30
18388;DHT22;9320;50.256;19.026;2023-04-03T14:22:29;6.70;54.10
18388;DHT22;9320;50.256;19.026;2023-04-03T14:24:58;6.70;53.70
18388;DHT22;9320;50.256;19.026;2023-04-03T14:27:29;6.70;53.80
18388;DHT22;9320;50.256;19.026;2023-04-03T14:29:58;6.50;54.30
18388;DHT22;9320;50.256;19.026;2023-04-03T14:32:28;6.60;54.60
18388;DHT22;9320;50.256;19.026;2023-04-03T14:34:57;6.60;55.10
18388;DHT22;9320;50.256;19.026;2023-04-03T14:37:27;6.80;54.90
18388;DHT22;9320;50.256;19.026;2023-04-03T14:39:57;6.70;54.50
18388;DHT22;9320;50.256;19.026;2023-04-03T14:42:27;6.80;55.10
18388;DHT22;9320;50.256;19.026;2023-04-03T14:44:56;6.40;55.20
18388;DHT22;9320;50.256;19.026;2023-04-03T14:47:27;6.30;54.80
18388;DHT22;9320;50.256;19.026;2023-04-03T14:49:59;6.40;55.00
18388;DHT22;9320;50.256;19.026;2023-04-03T14:52:30;6.50;52.30
18388;DHT22;9320;50.256;19.026;2023-04-03T14:54:59;6.80;51.60
18388;DHT22;9320;50.256;19.026;2023-04-03T14:57:29;7.20;50.70
18388;DHT22;9320;50.256;19.026;2023-04-03T14:59:58;7.10;51.70
18388;DHT22;9320;50.256;19.026;2023-04-03T15:02:29;7.00;52.60
18388;DHT22;9320;50.256;19.026;2023-04-03T15:05:00;6.80;53.80
18388;DHT22;9320;50.256;19.026;2023-04-03T15:07:33;6.60;54.60
18388;DHT22;9320;50.256;19.026;2023-04-03T15:10:06;6.30;54.40
18388;DHT22;9320;50.256;19.026;2023-04-03T15:12:41;6.30;54.10
18388;DHT22;9320;50.256;19.026;2023-04-03T15:15:11;6.30;53.40
18388;DHT22;9320;50.256;19.026;2023-04-03T15:17:39;6.30;52.90
18388;DHT22;9320;50.256;19.026;2023-04-03T15:20:13;6.40;53.30
18388;DHT22;9320;50.256;19.026;2023-04-03T15:22:42;6.10;54.20
18388;DHT22;9320;50.256;19.026;2023-04-03T15:25:10;6.20;54.40
18388;DHT22;9320;50.256;19.026;2023-04-03T15:27:39;6.10;54.20
18388;DHT22;9320;50.256;19.026;2023-04-03T15:30:11;6.10;55.20
18388;DHT22;9320;50.256;19.026;2023-04-03T15:32:41;6.30;56.00
18388;DHT22;9320;50.256;19.026;2023-04-03T15:35:09;6.20;55.40
18388;DHT22;9320;50.256;19.026;2023-04-03T15:37:39;5.90;55.50
18388;DHT22;9320;50.256;19.026;2023-04-03T15:40:08;5.80;56.00
18388;DHT22;9320;50.256;19.026;2023-04-03T15:42:36;5.80;55.40
18388;DHT22;9320;50.256;19.026;2023-04-03T15:45:06;5.90;56.10
18388;DHT22;9320;50.256;19.026;2023-04-03T15:47:34;5.90;55.20
18388;DHT22;9320;50.256;19.026;2023-04-03T15:50:02;6.00;55.00
18388;DHT22;9320;50.256;19.026;2023-04-03T15:52:32;5.90;55.40
18388;DHT22;9320;50.256;19.026;2023-04-03T15:55:02;5.90;55.60
18388;DHT22;9320;50.256;19.026;2023-04-03T15:57:30;5.90;56.20
18388;DHT22;9320;50.256;19.026;2023-04-03T16:00:04;6.00;56.00
18388;DHT22;9320;50.256;19.026;2023-04-03T16:02:33;6.00;55.90
18388;DHT22;9320;50.256;19.026;2023-04-03T16:05:01;5.60;55.30
18388;DHT22;9320;50.256;19.026;2023-04-03T16:07:30;5.40;56.20
18388;DHT22;9320;50.256;19.026;2023-04-03T16:09:58;5.50;56.70
18388;DHT22;9320;50.256;19.026;2023-04-03T16:12:27;5.40;57.20
18388;DHT22;9320;50.256;19.026;2023-04-03T16:14:55;5.50;57.30
18388;DHT22;9320;50.256;19.026;2023-04-03T16:17:23;5.60;56.40
18388;DHT22;9320;50.256;19.026;2023-04-03T16:19:52;5.60;56.50
18388;DHT22;9320;50.256;19.026;2023-04-03T16:22:20;5.50;56.90
18388;DHT22;9320;50.256;19.026;2023-04-03T16:24:49;5.50;56.80
18388;DHT22;9320;50.256;19.026;2023-04-03T16:27:17;5.30;55.90
18388;DHT22;9320;50.256;19.026;2023-04-03T16:29:46;5.20;56.30